Time;durP1;ratioP1;P1;durP2;ratioP2;P2;SDS_P1;SDS_P2;PMS_P1;PMS_P2;Temp;Humidity;BMP_temperature;BMP_pressure;BME280_temperature;BME280_humidity;BME280_pressure;Samples;Min_cycle;Max_cycle;Signal;HPM_P1;HPM_P2
2023/12/08 00:01:01;;;;;;;22.25;18.42;;;;;;;0.56;100.00;100578.47;5044165;28;20052;-69
2023/12/08 00:03:26;;;;;;;25.60;19.40;;;;;;;0.57;100.00;100580.19;5044764;28;20025;-69
2023/12/08 00:05:55;;;;;;;21.75;18.17;;;;;;;0.56;100.00;100568.84;5045069;28;20093;-70
2023/12/08 00:08:21;;;;;;;20.60;18.10;;;;;;;0.56;100.00;100575.84;5044169;28;20028;-69
2023/12/08 00:10:46;;;;;;;21.55;19.23;;;;;;;0.55;100.00;100567.13;5044625;28;20024;-69
2023/12/08 00:13:11;;;;;;;22.23;18.48;;;;;;;0.53;100.00;100554.94;5042224;28;20562;-69
2023/12/08 00:15:37;;;;;;;21.00;18.55;;;;;;;0.57;100.00;100562.72;5043121;28;20116;-72
2023/12/08 00:18:02;;;;;;;23.30;18.45;;;;;;;0.57;100.00;100554.00;5044219;28;20024;-69
2023/12/08 00:20:27;;;;;;;24.55;19.45;;;;;;;0.61;100.00;100560.94;5038578;28;20052;-70
2023/12/08 00:22:53;;;;;;;21.75;18.77;;;;;;;0.62;100.00;100565.28;5042010;28;20403;-69
2023/12/08 00:25:19;;;;;;;23.80;18.58;;;;;;;0.64;100.00;100545.19;5043144;28;20522;-69
2023/12/08 00:27:44;;;;;;;22.08;18.00;;;;;;;0.65;100.00;100545.16;5043982;28;20617;-69
2023/12/08 00:30:11;;;;;;;21.02;17.83;;;;;;;0.66;100.00;100543.38;5043981;28;20047;-69
2023/12/08 00:32:37;;;;;;;21.90;18.73;;;;;;;0.67;100.00;100545.09;5043942;28;20059;-69
2023/12/08 00:35:03;;;;;;;22.38;18.83;;;;;;;0.69;100.00;100543.34;5043470;28;20021;-69
2023/12/08 00:37:28;;;;;;;21.63;18.50;;;;;;;0.70;100.00;100526.75;5043182;28;20036;-69
2023/12/08 00:39:54;;;;;;;21.88;18.15;;;;;;;0.63;100.00;100525.97;5039727;28;20035;-70
2023/12/08 00:42:19;;;;;;;22.10;18.42;;;;;;;0.72;100.00;100530.22;5042953;28;20115;-70
2023/12/08 00:44:44;;;;;;;21.42;19.08;;;;;;;0.74;100.00;100529.28;5042595;28;20167;-69
2023/12/08 00:47:10;;;;;;;22.35;18.15;;;;;;;0.75;100.00;100530.13;5044185;28;20522;-70
2023/12/08 00:49:35;;;;;;;19.75;17.17;;;;;;;0.76;100.00;100524.03;5042694;28;20108;-69
2023/12/08 00:52:00;;;;;;;21.92;18.45;;;;;;;0.77;100.00;100528.38;5043377;28;20126;-70
2023/12/08 00:54:26;;;;;;;21.25;18.50;;;;;;;0.78;100.00;100524.00;5025074;28;20131;-69
2023/12/08 00:56:51;;;;;;;20.60;17.55;;;;;;;0.77;100.00;100520.53;5042743;28;20100;-70
2023/12/08 00:59:16;;;;;;;19.83;17.30;;;;;;;0.79;100.00;100523.97;5040342;28;20029;-70
2023/12/08 01:01:41;;;;;;;21.98;18.33;;;;;;;0.79;100.00;100521.34;5042696;28;20899;-69
2023/12/08 01:04:07;;;;;;;20.60;18.40;;;;;;;0.79;100.00;100523.97;5042203;28;20028;-69
2023/12/08 01:06:32;;;;;;;23.42;19.27;;;;;;;0.79;100.00;100520.47;5042270;28;20032;-69
2023/12/08 01:08:57;;;;;;;22.33;17.65;;;;;;;0.77;100.00;100520.53;5041089;28;20037;-69
2023/12/08 01:11:23;;;;;;;22.70;18.33;;;;;;;0.79;100.00;100512.63;5042080;28;20170;-69
2023/12/08 01:13:48;;;;;;;21.42;17.83;;;;;;;0.76;100.00;100518.78;5042508;28;20024;-69
2023/12/08 01:16:13;;;;;;;22.75;17.95;;;;;;;0.77;100.00;100503.94;5043146;28;20044;-70
2023/12/08 01:18:39;;;;;;;19.55;16.92;;;;;;;0.77;100.00;100502.19;5042409;28;20025;-71
2023/12/08 01:21:04;;;;;;;21.58;17.63;;;;;;;0.76;100.00;100502.22;5042579;28;20043;-70
2023/12/08 01:23:30;;;;;;;22.38;18.25;;;;;;;0.76;100.00;100497.84;5042422;28;20483;-69
2023/12/08 01:25:56;;;;;;;23.35;18.67;;;;;;;0.73;100.00;100492.63;5042920;28;20328;-70
2023/12/08 01:28:21;;;;;;;21.73;18.23;;;;;;;0.74;100.00;100489.13;5041383;28;20529;-71
2023/12/08 01:30:46;;;;;;;21.13;18.83;;;;;;;0.71;100.00;100497.03;5039372;28;20033;-70
2023/12/08 01:33:12;;;;;;;23.70;19.25;;;;;;;0.64;100.00;100492.78;5042398;28;20024;-71
2023/12/08 01:35:37;;;;;;;22.48;19.08;;;;;;;0.54;100.00;100476.34;5042282;28;20021;-72
2023/12/08 01:38:02;;;;;;;22.77;19.05;;;;;;;0.58;100.00;100488.50;5041800;28;20151;-70
2023/12/08 01:40:28;;;;;;;23.35;19.85;;;;;;;0.56;100.00;100481.56;5021208;28;20562;-69
2023/12/08 01:42:53;;;;;;;22.38;19.02;;;;;;;0.47;100.00;100469.50;5041136;28;20104;-69
2023/12/08 01:45:19;;;;;;;22.58;19.27;;;;;;;0.52;100.00;100477.28;5034549;28;20045;-70
2023/12/08 01:47:46;;;;;;;23.42;20.17;;;;;;;0.47;100.00;100474.72;5017555;28;20037;-71
2023/12/08 01:50:13;;;;;;;22.40;18.73;;;;;;;0.42;100.00;100459.09;5018380;28;20021;-70
2023/12/08 01:52:40;;;;;;;24.70;20.35;;;;;;;0.42;100.00;100471.31;5021110;28;20029;-70
2023/12/08 01:55:06;;;;;;;23.45;19.65;;;;;;;0.36;100.00;100461.78;5002034;28;20087;-70
2023/12/08 01:57:32;;;;;;;23.63;19.73;;;;;;;0.43;100.00;100468.66;5020566;28;20040;-71
2023/12/08 02:00:00;;;;;;;23.25;19.67;;;;;;;0.43;100.00;100465.19;5022081;28;20045;-70
2023/12/08 02:02:25;;;;;;;22.13;19.42;;;;;;;0.43;100.00;100460.81;5021569;28;20071;-70
2023/12/08 02:04:56;;;;;;;24.30;19.95;;;;;;;0.43;100.00;100463.44;5021993;28;20033;-72
2023/12/08 02:07:22;;;;;;;21.95;19.02;;;;;;;0.42;100.00;100459.09;5022265;28;20071;-70
2023/12/08 02:09:47;;;;;;;24.02;19.70;;;;;;;0.36;100.00;100450.47;5023100;28;20092;-70
2023/12/08 02:12:12;;;;;;;25.77;20.92;;;;;;;0.39;100.00;100443.41;5020788;28;20139;-71
2023/12/08 02:14:38;;;;;;;26.20;20.65;;;;;;;0.38;100.00;100443.47;5021369;28;20018;-70
2023/12/08 02:17:13;;;;;;;30.05;21.98;;;;;;;0.36;100.00;100451.31;5023113;28;20022;-70
2023/12/08 02:19:40;;;;;;;28.65;21.88;;;;;;;0.35;100.00;100443.50;5029140;28;20029;-69
2023/12/08 02:22:06;;;;;;;26.95;21.58;;;;;;;0.33;100.00;100435.66;5023041;28;20033;-71
2023/12/08 02:24:32;;;;;;;25.67;22.02;;;;;;;0.33;100.00;100438.25;5021694;28;20033;-71
2023/12/08 02:26:58;;;;;;;30.95;23.85;;;;;;;0.33;100.00;100427.78;5021575;28;20030;-71
2023/12/08 02:29:26;;;;;;;28.38;22.40;;;;;;;0.31;100.00;100426.97;5021180;28;20137;-68
2023/12/08 02:32:00;;;;;;;29.75;23.42;;;;;;;0.29;100.00;100423.50;5019225;28;20041;-71
2023/12/08 02:34:27;;;;;;;30.05;23.27;;;;;;;0.28;100.00;100421.78;5018644;28;20323;-74
2023/12/08 02:36:54;;;;;;;34.25;24.60;;;;;;;0.28;100.00;100423.53;5021243;28;20026;-72
2023/12/08 02:39:21;;;;;;;32.47;24.38;;;;;;;0.26;100.00;100428.78;5023036;28;20511;-71
2023/12/08 02:41:46;;;;;;;30.50;23.45;;;;;;;0.26;100.00;100423.56;5022770;28;20037;-72
2023/12/08 02:44:12;;;;;;;32.78;25.35;;;;;;;0.28;100.00;100423.53;5022107;28;20442;-73
2023/12/08 02:46:37;;;;;;;34.08;25.48;;;;;;;0.29;100.00;100422.63;5039250;28;20495;-71
2023/12/08 02:49:03;;;;;;;33.25;24.85;;;;;;;0.27;100.00;100421.81;5041874;28;20110;-71
2023/12/08 02:51:29;;;;;;;34.33;25.52;;;;;;;0.28;100.00;100419.16;5033557;28;20055;-69
2023/12/08 02:53:54;;;;;;;34.78;24.38;;;;;;;0.28;100.00;100416.53;5041106;28;20063;-69
2023/12/08 02:56:20;;;;;;;32.83;24.77;;;;;;;0.23;100.00;100405.28;5042406;28;20028;-69
2023/12/08 02:58:45;;;;;;;34.70;25.73;;;;;;;0.30;100.00;100417.41;5039832;28;20552;-69
2023/12/08 03:01:11;;;;;;;35.03;25.65;;;;;;;0.30;100.00;100413.91;5037755;28;20021;-73
2023/12/08 03:03:36;;;;;;;35.55;26.27;;;;;;;0.24;100.00;100414.84;5022933;28;20029;-71
2023/12/08 03:06:02;;;;;;;32.40;25.35;;;;;;;0.34;100.00;100431.31;5041766;28;20040;-70
2023/12/08 03:08:27;;;;;;;38.45;27.63;;;;;;;0.34;100.00;100426.94;5039893;28;20033;-73
2023/12/08 03:10:52;;;;;;;39.05;28.70;;;;;;;0.36;100.00;100435.59;5035632;28;20033;-77
2023/12/08 03:13:18;;;;;;;40.88;29.30;;;;;;;0.35;100.00;100430.41;5042239;28;20028;-71
2023/12/08 03:15:43;;;;;;;40.92;29.17;;;;;;;0.35;100.00;100426.03;5041531;28;20235;-75
2023/12/08 03:18:08;;;;;;;39.75;28.50;;;;;;;0.31;100.00;100421.72;5036423;28;20039;-72
2023/12/08 03:20:33;;;;;;;36.72;27.88;;;;;;;0.34;100.00;100431.31;5040562;28;20029;-71
2023/12/08 03:22:59;;;;;;;38.17;28.38;;;;;;;0.34;100.00;100428.69;5041917;28;20122;-72
2023/12/08 03:25:25;;;;;;;41.03;28.77;;;;;;;0.36;100.00;100432.13;5042000;28;20384;-68
2023/12/08 03:27:50;;;;;;;40.60;28.52;;;;;;;0.35;100.00;100433.03;5041307;28;20108;-69
2023/12/08 03:30:16;;;;;;;40.35;28.13;;;;;;;0.37;100.00;100433.84;5040317;28;20033;-72
2023/12/08 03:32:41;;;;;;;39.83;28.08;;;;;;;0.34;100.00;100421.69;5040362;28;20511;-69
2023/12/08 03:35:07;;;;;;;40.50;29.13;;;;;;;0.35;100.00;100417.31;5035481;28;20032;-70
2023/12/08 03:37:32;;;;;;;40.33;28.70;;;;;;;0.34;100.00;100413.84;5034565;28;20091;-69
2023/12/08 03:39:57;;;;;;;42.25;29.27;;;;;;;0.33;100.00;100417.31;5044755;28;20079;-70
2023/12/08 03:42:22;;;;;;;42.47;29.65;;;;;;;0.32;100.00;100418.22;5044888;28;20040;-70
2023/12/08 03:44:48;;;;;;;43.42;29.08;;;;;;;0.35;100.00;100412.94;5044993;28;20024;-72
2023/12/08 03:47:13;;;;;;;42.42;29.33;;;;;;;0.35;100.00;100418.19;5044377;28;20152;-73
2023/12/08 03:49:38;;;;;;;41.92;29.40;;;;;;;0.34;100.00;100423.44;5045268;28;20055;-70
2023/12/08 03:52:04;;;;;;;41.88;29.42;;;;;;;0.26;100.00;100412.22;5044644;28;20020;-72
2023/12/08 03:54:29;;;;;;;40.15;28.92;;;;;;;0.35;100.00;100417.31;5044193;28;20536;-73
2023/12/08 03:56:55;;;;;;;41.17;29.23;;;;;;;0.34;100.00;100413.84;5042085;28;20053;-69
2023/12/08 03:59:20;;;;;;;43.53;30.55;;;;;;;0.33;100.00;100417.31;5026058;28;20040;-71
2023/12/08 04:01:46;;;;;;;42.33;30.17;;;;;;;0.32;100.00;100409.50;5038739;28;20178;-69
2023/12/08 04:04:12;;;;;;;45.20;31.17;;;;;;;0.32;100.00;100401.66;5044546;28;20033;-70
2023/12/08 04:06:38;;;;;;;44.20;30.55;;;;;;;0.36;100.00;100403.34;5045000;28;20108;-70
2023/12/08 04:09:03;;;;;;;47.88;30.98;;;;;;;0.35;100.00;100402.47;5043176;28;20107;-70
2023/12/08 04:11:28;;;;;;;47.95;30.60;;;;;;;0.34;100.00;100405.13;5045177;28;20032;-71
2023/12/08 04:13:54;;;;;;;45.83;30.25;;;;;;;0.33;100.00;100385.91;5044880;28;20040;-68
2023/12/08 04:16:19;;;;;;;43.00;30.75;;;;;;;0.32;100.00;100392.03;5042340;28;20116;-70
2023/12/08 04:18:44;;;;;;;47.50;30.80;;;;;;;0.34;100.00;100382.44;5038088;28;20182;-73
2023/12/08 04:21:16;;;;;;;46.33;32.40;;;;;;;0.33;100.00;100383.28;5043843;28;20491;-71
2023/12/08 04:23:41;;;;;;;47.78;32.03;;;;;;;0.34;100.00;100390.28;5043485;28;20033;-69
2023/12/08 04:26:07;;;;;;;43.67;29.67;;;;;;;0.34;100.00;100390.28;5043927;28;20062;-69
2023/12/08 04:28:32;;;;;;;49.03;32.15;;;;;;;0.31;100.00;100385.09;5043530;28;20040;-70
2023/12/08 04:30:57;;;;;;;47.65;32.33;;;;;;;0.32;100.00;100405.13;5043054;28;20036;-70
2023/12/08 04:33:23;;;;;;;47.50;31.35;;;;;;;0.34;100.00;100399.88;5044305;28;20056;-75
2023/12/08 04:35:48;;;;;;;47.00;32.28;;;;;;;0.34;100.00;100392.03;5042274;28;20039;-69
2023/12/08 04:38:14;;;;;;;49.22;31.52;;;;;;;0.39;100.00;100390.19;5020311;28;20094;-69
2023/12/08 04:40:42;;;;;;;48.63;31.65;;;;;;;0.39;100.00;100393.69;5043591;28;20517;-72
2023/12/08 04:43:07;;;;;;;48.58;30.63;;;;;;;0.42;100.00;100393.63;5043574;28;20107;-71
2023/12/08 04:45:33;;;;;;;47.47;32.03;;;;;;;0.43;100.00;100394.50;5042197;28;20136;-71
2023/12/08 04:47:58;;;;;;;48.85;33.22;;;;;;;0.45;100.00;100382.22;5038317;28;20065;-72
2023/12/08 04:50:23;;;;;;;47.58;30.92;;;;;;;0.45;100.00;100390.94;5042730;28;20025;-71
2023/12/08 04:52:49;;;;;;;47.35;31.42;;;;;;;0.45;100.00;100385.72;5043768;28;20063;-71
2023/12/08 04:55:14;;;;;;;51.00;31.00;;;;;;;0.47;100.00;100398.78;5043984;28;20138;-71
2023/12/08 04:57:39;;;;;;;48.90;31.50;;;;;;;0.49;100.00;100391.75;5042270;28;20083;-72
2023/12/08 05:00:06;;;;;;;49.20;31.88;;;;;;;0.51;100.00;100386.53;5038087;28;20471;-69
2023/12/08 05:02:31;;;;;;;46.08;31.50;;;;;;;0.51;100.00;100384.75;5042762;28;20060;-71
2023/12/08 05:04:56;;;;;;;47.72;31.50;;;;;;;0.53;100.00;100390.81;5042917;28;20033;-71
2023/12/08 05:07:22;;;;;;;47.78;31.08;;;;;;;0.53;100.00;100388.19;5045291;28;20033;-72
2023/12/08 05:09:47;;;;;;;50.58;31.52;;;;;;;0.56;100.00;100387.28;5043311;28;20055;-76
2023/12/08 05:12:12;;;;;;;50.55;32.38;;;;;;;0.57;100.00;100382.03;5043921;28;20483;-69
2023/12/08 05:14:38;;;;;;;46.28;31.50;;;;;;;0.54;100.00;100370.72;5042452;28;20084;-71
2023/12/08 05:17:03;;;;;;;48.90;31.50;;;;;;;0.49;100.00;100361.19;5043365;28;20045;-73
2023/12/08 05:19:28;;;;;;;49.75;31.90;;;;;;;0.60;100.00;100375.88;5043395;28;20025;-71
2023/12/08 05:21:58;;;;;;;45.95;31.63;;;;;;;0.53;100.00;100362.00;5038958;28;20530;-70
2023/12/08 05:24:23;;;;;;;46.40;30.90;;;;;;;0.62;100.00;100366.22;5043191;28;20033;-69
2023/12/08 05:26:49;;;;;;;46.72;30.05;;;;;;;0.64;100.00;100361.84;5042721;28;20106;-71
2023/12/08 05:29:14;;;;;;;48.15;30.63;;;;;;;0.65;100.00;100359.19;5042217;28;20506;-73
2023/12/08 05:31:40;;;;;;;49.83;32.10;;;;;;;0.67;100.00;100369.63;5042216;28;20103;-71
2023/12/08 05:34:05;;;;;;;48.28;31.27;;;;;;;0.69;100.00;100380.94;5041857;28;20523;-71
2023/12/08 05:36:30;;;;;;;47.47;30.52;;;;;;;0.70;100.00;100391.38;5042325;28;20521;-72
2023/12/08 05:38:59;;;;;;;46.60;30.17;;;;;;;0.71;100.00;100382.66;5038962;28;20616;-68
2023/12/08 05:41:24;;;;;;;47.80;31.48;;;;;;;0.72;100.00;100384.38;5043084;28;20025;-70
2023/12/08 05:43:50;;;;;;;48.78;29.23;;;;;;;0.74;100.00;100385.19;5042478;28;20064;-73
2023/12/08 05:46:15;;;;;;;46.67;30.67;;;;;;;0.76;100.00;100382.56;5042128;28;20688;-72
2023/12/08 05:48:40;;;;;;;49.33;30.33;;;;;;;0.78;100.00;100393.00;5042424;28;20032;-72
2023/12/08 05:51:06;;;;;;;48.08;31.10;;;;;;;0.77;100.00;100397.41;5041941;28;20052;-71
2023/12/08 05:53:31;;;;;;;46.80;30.98;;;;;;;0.81;100.00;100404.31;5042513;28;20033;-70
2023/12/08 05:55:57;;;;;;;49.60;31.27;;;;;;;0.80;100.00;100394.72;5042548;28;20129;-70
2023/12/08 05:58:24;;;;;;;50.40;31.67;;;;;;;0.84;100.00;100399.03;5039299;28;20041;-71
2023/12/08 06:00:50;;;;;;;49.33;31.67;;;;;;;0.86;100.00;100394.59;5040076;28;20064;-69
2023/12/08 06:03:15;;;;;;;52.20;31.38;;;;;;;0.88;100.00;100394.56;5040811;28;20230;-69
2023/12/08 06:05:41;;;;;;;49.72;30.27;;;;;;;0.89;100.00;100386.69;5041900;28;20024;-73
2023/12/08 06:08:06;;;;;;;47.13;30.40;;;;;;;0.88;100.00;100381.47;5042032;28;20057;-69
2023/12/08 06:10:31;;;;;;;52.03;31.60;;;;;;;0.91;100.00;100386.66;5041674;28;20203;-70
2023/12/08 06:12:57;;;;;;;51.60;31.83;;;;;;;0.94;100.00;100397.09;5041775;28;20025;-68
2023/12/08 06:15:22;;;;;;;52.83;32.30;;;;;;;0.95;100.00;100390.94;5041790;28;20507;-68
2023/12/08 06:17:47;;;;;;;51.03;31.65;;;;;;;0.93;100.00;100379.66;5041937;28;20037;-70
2023/12/08 06:20:14;;;;;;;48.42;31.08;;;;;;;0.89;100.00;100386.69;5041826;28;20016;-70
2023/12/08 06:22:40;;;;;;;49.97;31.45;;;;;;;1.00;100.00;100402.19;5038896;28;20116;-71
2023/12/08 06:25:05;;;;;;;50.53;31.45;;;;;;;0.96;100.00;100393.56;5041494;28;20107;-71
2023/12/08 06:27:31;;;;;;;54.20;33.08;;;;;;;1.02;100.00;100396.94;5041915;28;20037;-69
2023/12/08 06:29:59;;;;;;;53.47;32.25;;;;;;;1.03;100.00;100401.28;5042408;28;20178;-68
2023/12/08 06:32:28;;;;;;;53.28;32.20;;;;;;;1.05;100.00;100396.91;5041802;28;20035;-70
2023/12/08 06:34:53;;;;;;;55.33;33.63;;;;;;;1.06;100.00;100396.84;5025959;28;20024;-68
2023/12/08 06:37:19;;;;;;;54.45;32.75;;;;;;;1.07;100.00;100401.19;5041951;28;20029;-70
2023/12/08 06:39:44;;;;;;;50.83;32.92;;;;;;;1.09;100.00;100404.66;5036719;28;20028;-70
2023/12/08 06:42:10;;;;;;;59.90;33.58;;;;;;;1.09;100.00;100407.28;5041443;28;20572;-68
2023/12/08 06:44:35;;;;;;;54.67;33.35;;;;;;;1.12;100.00;100406.34;5041959;28;20036;-72
2023/12/08 06:47:01;;;;;;;60.85;33.72;;;;;;;1.15;100.00;100411.53;5041942;28;20068;-69
2023/12/08 06:49:29;;;;;;;56.58;34.00;;;;;;;1.12;100.00;100396.72;5023343;28;20029;-68
2023/12/08 06:51:54;;;;;;;57.75;35.25;;;;;;;1.18;100.00;100412.34;5042027;28;20051;-71
2023/12/08 06:54:20;;;;;;;56.53;34.38;;;;;;;1.11;100.00;100407.25;5037948;28;20543;-69
2023/12/08 06:56:45;;;;;;;64.85;35.53;;;;;;;1.21;100.00;100421.91;5042069;28;20047;-70
2023/12/08 06:59:11;;;;;;;60.58;34.40;;;;;;;1.21;100.00;100414.91;5040829;28;20052;-70
2023/12/08 07:01:36;;;;;;;57.83;34.42;;;;;;;1.24;100.00;100421.84;5036709;28;20033;-69
2023/12/08 07:04:04;;;;;;;61.50;35.08;;;;;;;1.26;100.00;100419.22;5017425;28;20053;-72
2023/12/08 07:06:30;;;;;;;60.63;35.53;;;;;;;1.23;100.00;100415.75;5037249;28;20509;-71
2023/12/08 07:08:56;;;;;;;63.60;36.67;;;;;;;1.30;100.00;100423.50;5040289;28;20017;-70
2023/12/08 07:11:21;;;;;;;59.63;35.50;;;;;;;1.29;100.00;100420.00;5040645;28;20037;-70
2023/12/08 07:13:46;;;;;;;63.70;36.25;;;;;;;1.30;100.00;100413.00;5021417;28;20258;-71
2023/12/08 07:16:12;;;;;;;62.28;35.53;;;;;;;1.33;100.00;100413.78;5040866;28;20028;-69
2023/12/08 07:18:37;;;;;;;68.47;35.60;;;;;;;1.33;100.00;100415.56;5044970;28;20028;-69
2023/12/08 07:21:06;;;;;;;64.63;36.45;;;;;;;1.34;100.00;100418.16;5044806;28;20033;-69
2023/12/08 07:23:31;;;;;;;64.63;37.33;;;;;;;1.32;100.00;100414.69;5045129;28;20033;-69
2023/12/08 07:25:57;;;;;;;69.20;37.60;;;;;;;1.32;100.00;100417.31;5039964;28;20041;-70
2023/12/08 07:28:23;;;;;;;73.13;38.47;;;;;;;1.34;100.00;100420.78;5027561;28;20041;-71
2023/12/08 07:30:48;;;;;;;69.00;37.90;;;;;;;1.39;100.00;100425.94;5044345;28;20033;-71
2023/12/08 07:33:13;;;;;;;72.65;38.80;;;;;;;1.40;100.00;100428.50;5046226;28;20031;-70
2023/12/08 07:35:38;;;;;;;70.35;39.25;;;;;;;1.44;100.00;100427.56;5044539;28;20056;-70
2023/12/08 07:38:04;;;;;;;79.97;39.50;;;;;;;1.43;100.00;100433.72;5044239;28;20071;-70
2023/12/08 07:40:30;;;;;;;78.07;40.47;;;;;;;1.48;100.00;100441.47;5043937;28;20243;-71
2023/12/08 07:42:55;;;;;;;77.43;40.05;;;;;;;1.46;100.00;100431.03;5040578;28;20084;-69
2023/12/08 07:45:21;;;;;;;74.45;39.78;;;;;;;1.51;100.00;100445.81;5043535;28;20068;-69
2023/12/08 07:47:47;;;;;;;80.85;40.65;;;;;;;1.55;100.00;100450.06;5043931;28;20036;-68
2023/12/08 07:50:14;;;;;;;76.35;40.53;;;;;;;1.52;100.00;100456.25;5044434;28;20066;-70
2023/12/08 07:52:41;;;;;;;82.28;39.97;;;;;;;1.57;100.00;100469.28;5043112;28;20029;-70
2023/12/08 07:55:10;;;;;;;80.30;40.55;;;;;;;1.53;100.00;100449.25;5044617;28;20032;-69
2023/12/08 07:57:36;;;;;;;89.57;44.08;;;;;;;1.61;100.00;100452.59;5042441;28;20021;-68
2023/12/08 08:00:05;;;;;;;81.72;41.80;;;;;;;1.66;100.00;100461.22;5043632;28;20061;-69
2023/12/08 08:02:31;;;;;;;91.13;43.63;;;;;;;1.67;100.00;100455.06;5038082;28;20529;-68
2023/12/08 08:05:00;;;;;;;87.13;42.67;;;;;;;1.69;100.00;100455.91;5025310;28;20033;-68
2023/12/08 08:07:25;;;;;;;83.43;42.25;;;;;;;1.70;100.00;100450.63;5043887;28;20094;-68
2023/12/08 08:09:51;;;;;;;96.03;45.13;;;;;;;1.73;100.00;100453.19;5042495;28;20021;-70
2023/12/08 08:12:16;;;;;;;92.50;44.63;;;;;;;1.79;100.00;100470.56;5034913;28;20047;-70
2023/12/08 08:14:42;;;;;;;107.10;46.83;;;;;;;1.81;100.00;100471.41;5043067;28;20029;-68
2023/12/08 08:17:07;;;;;;;98.22;45.38;;;;;;;1.82;100.00;100459.16;5041495;28;20043;-71
2023/12/08 08:19:33;;;;;;;104.18;45.40;;;;;;;1.83;100.00;100455.63;5041410;28;20574;-71
2023/12/08 08:21:58;;;;;;;97.03;44.75;;;;;;;1.86;100.00;100453.81;5024358;28;20513;-69
2023/12/08 08:24:23;;;;;;;101.03;46.65;;;;;;;1.94;100.00;100464.16;5043713;28;20036;-71
2023/12/08 08:26:49;;;;;;;107.00;47.97;;;;;;;1.98;100.00;100466.66;5042716;28;20501;-71
2023/12/08 08:29:14;;;;;;;113.05;47.75;;;;;;;2.00;100.00;100472.72;5040762;28;20056;-69
2023/12/08 08:31:39;;;;;;;115.60;48.10;;;;;;;2.02;100.00;100458.72;5040146;28;20565;-69
2023/12/08 08:34:05;;;;;;;106.75;46.30;;;;;;;2.09;100.00;100466.44;5041791;28;20055;-70
2023/12/08 08:36:31;;;;;;;101.85;46.80;;;;;;;2.09;100.00;100455.94;5040260;28;20115;-71
2023/12/08 08:39:00;;;;;;;124.88;48.67;;;;;;;2.18;100.00;100468.00;5043337;28;20025;-67
2023/12/08 08:41:26;;;;;;;112.35;48.80;;;;;;;2.27;100.00;100475.66;5042808;28;20067;-70
2023/12/08 08:43:51;;;;;;;113.25;48.83;;;;;;;2.33;100.00;100472.88;5042509;28;20118;-69
2023/12/08 08:46:17;;;;;;;109.38;48.10;;;;;;;2.40;100.00;100473.63;5040786;28;20052;-69
2023/12/08 08:48:42;;;;;;;111.18;47.92;;;;;;;2.46;100.00;100476.09;5042740;28;20527;-70
2023/12/08 08:51:08;;;;;;;117.53;50.13;;;;;;;2.49;100.00;100476.88;5041661;28;20017;-69
2023/12/08 08:53:34;;;;;;;119.82;51.45;;;;;;;2.54;100.00;100484.66;5041191;28;20012;-70
2023/12/08 08:55:59;;;;;;;118.38;48.33;;;;;;;2.56;100.00;100479.38;5023595;28;20025;-70
2023/12/08 08:58:25;;;;;;;126.82;50.72;;;;;;;2.61;100.00;100486.25;5043869;28;20025;-70
2023/12/08 09:00:51;;;;;;;115.57;47.30;;;;;;;2.69;100.00;100496.56;5043907;28;20139;-70
2023/12/08 09:03:16;;;;;;;113.68;49.92;;;;;;;2.75;100.00;100496.41;5047106;28;21152;-69
2023/12/08 09:05:41;;;;;;;123.82;50.72;;;;;;;2.82;100.00;100500.63;5041722;28;20112;-68
2023/12/08 09:08:08;;;;;;;114.40;48.92;;;;;;;2.80;100.00;100499.81;5038699;28;20247;-70
2023/12/08 09:10:34;;;;;;;128.93;50.72;;;;;;;2.83;100.00;100510.22;5041518;28;20029;-68
2023/12/08 09:12:59;;;;;;;117.20;50.10;;;;;;;2.92;100.00;100506.50;5043418;28;20036;-70
2023/12/08 09:15:25;;;;;;;119.70;50.58;;;;;;;2.95;100.00;100502.03;5044799;28;20037;-69
2023/12/08 09:17:51;;;;;;;123.55;50.95;;;;;;;2.96;100.00;100509.03;5042232;28;20487;-69
2023/12/08 09:20:17;;;;;;;120.95;50.47;;;;;;;3.04;100.00;100513.22;5041059;28;20302;-67
2023/12/08 09:22:43;;;;;;;110.97;49.65;;;;;;;3.08;100.00;100510.47;5042329;28;20029;-70
2023/12/08 09:25:09;;;;;;;112.70;50.35;;;;;;;3.12;100.00;100508.66;5041652;28;20536;-69
2023/12/08 09:27:35;;;;;;;116.72;51.22;;;;;;;3.15;100.00;100509.44;5042306;28;20045;-69
2023/12/08 09:30:01;;;;;;;127.07;51.50;;;;;;;3.16;100.00;100508.53;5042035;28;20039;-67
2023/12/08 09:32:28;;;;;;;119.03;52.00;;;;;;;3.21;100.00;100508.41;5041550;28;20039;-68
2023/12/08 09:34:53;;;;;;;125.30;53.08;;;;;;;3.20;100.00;100511.94;5040342;28;20036;-69
2023/12/08 09:37:19;;;;;;;129.45;53.40;;;;;;;3.18;100.00;100504.09;5041280;28;20387;-69
2023/12/08 09:39:44;;;;;;;133.30;55.00;;;;;;;3.29;100.00;100519.59;5040470;28;20029;-67
2023/12/08 09:42:20;;;;;;;128.35;53.00;;;;;;;3.36;100.00;100515.91;5040799;28;20021;-69
2023/12/08 09:44:48;;;;;;;126.18;51.88;;;;;;;3.35;100.00;100524.72;5040231;28;20139;-69
2023/12/08 09:47:17;;;;;;;127.15;51.45;;;;;;;3.40;100.00;100524.59;5041293;28;20139;-69
2023/12/08 09:49:46;;;;;;;128.93;51.17;;;;;;;3.45;100.00;100528.81;5042242;28;20383;-68
2023/12/08 09:52:14;;;;;;;129.80;51.35;;;;;;;3.49;100.00;100526.97;5042512;28;20544;-70
2023/12/08 09:54:40;;;;;;;124.03;50.30;;;;;;;3.57;100.00;100534.66;5042051;28;20250;-67
2023/12/08 09:57:08;;;;;;;129.18;50.28;;;;;;;3.64;100.00;100538.84;5041708;28;20274;-69
2023/12/08 09:59:37;;;;;;;128.35;51.90;;;;;;;3.64;100.00;100516.03;5042668;28;20029;-69
2023/12/08 10:02:03;;;;;;;134.32;51.03;;;;;;;3.69;100.00;100531.69;5042652;28;20069;-68
2023/12/08 10:04:28;;;;;;;125.05;49.40;;;;;;;3.73;100.00;100538.59;5043014;28;20100;-67
2023/12/08 10:06:57;;;;;;;131.35;51.35;;;;;;;3.80;100.00;100540.13;5042239;28;20075;-68
2023/12/08 10:09:22;;;;;;;120.28;48.78;;;;;;;3.85;100.00;100540.03;5042358;28;20032;-69
2023/12/08 10:11:48;;;;;;;111.97;46.03;;;;;;;3.89;100.00;100529.38;5040850;28;20024;-69
2023/12/08 10:14:14;;;;;;;108.82;46.30;;;;;;;3.93;100.00;100530.13;5043294;28;20036;-68
2023/12/08 10:16:43;;;;;;;119.72;47.10;;;;;;;3.97;100.00;100530.00;5042091;28;20074;-68
2023/12/08 10:19:09;;;;;;;120.72;48.47;;;;;;;4.02;100.00;100531.66;5040527;28;21756;-70
2023/12/08 10:21:35;;;;;;;118.03;46.45;;;;;;;4.07;100.00;100522.69;5041330;28;20029;-69
2023/12/08 10:24:01;;;;;;;111.03;44.55;;;;;;;4.10;100.00;100527.88;5042250;28;20069;-68
2023/12/08 10:26:27;;;;;;;115.78;48.55;;;;;;;4.17;100.00;100528.56;5042130;28;20109;-67
2023/12/08 10:28:56;;;;;;;113.45;45.45;;;;;;;4.20;100.00;100513.53;5042704;28;20549;-68
2023/12/08 10:31:22;;;;;;;113.75;45.90;;;;;;;4.27;100.00;100514.22;5024372;28;20264;-67
2023/12/08 10:33:48;;;;;;;121.07;44.40;;;;;;;4.29;100.00;100522.06;5042240;28;20164;-68
2023/12/08 10:36:13;;;;;;;104.15;42.85;;;;;;;4.38;100.00;100521.78;5042375;28;20037;-68
2023/12/08 10:38:39;;;;;;;111.90;44.13;;;;;;;4.37;100.00;100520.91;5042754;28;20118;-67
2023/12/08 10:41:05;;;;;;;109.80;44.30;;;;;;;4.45;100.00;100532.09;5041758;28;20204;-68
2023/12/08 10:43:30;;;;;;;100.35;42.03;;;;;;;4.52;100.00;100519.59;5038543;28;20083;-68
2023/12/08 10:45:56;;;;;;;100.90;39.80;;;;;;;4.59;100.00;100521.09;5038948;28;20036;-68
2023/12/08 10:48:23;;;;;;;101.78;39.50;;;;;;;4.67;100.00;100527.00;5043128;28;20036;-68
2023/12/08 10:50:50;;;;;;;104.45;38.67;;;;;;;4.61;100.00;100515.81;5043236;28;20264;-68
2023/12/08 10:53:17;;;;;;;95.60;39.28;;;;;;;4.69;100.00;100524.34;5043421;28;20020;-68
2023/12/08 10:55:44;;;;;;;87.43;37.08;;;;;;;4.73;100.00;100513.66;5041440;28;20219;-68
2023/12/08 10:58:12;;;;;;;91.43;36.95;;;;;;;4.79;100.00;100517.84;5044484;28;20423;-68
2023/12/08 11:00:39;;;;;;;90.80;36.85;;;;;;;4.84;100.00;100522.97;5044124;28;20143;-68